sensor_id;sensor_type;location;lat;lon;timestamp;temperature;humidity
22442;DHT22;11388;54.456;9.752;2023-04-06T00:01:40;4.80;99.90
22442;DHT22;11388;54.456;9.752;2023-04-06T00:04:06;4.80;99.90
22442;DHT22;11388;54.456;9.752;2023-04-06T00:06:32;4.80;99.90
22442;DHT22;11388;54.456;9.752;2023-04-06T00:08:59;4.70;99.90
22442;DHT22;11388;54.456;9.752;2023-04-06T00:11:25;4.70;99.90
22442;DHT22;11388;54.456;9.752;2023-04-06T00:13:51;4.70;99.90
22442;DHT22;11388;54.456;9.752;2023-04-06T00:16:17;4.60;99.90
22442;DHT22;11388;54.456;9.752;2023-04-06T00:18:43;4.50;99.90
22442;DHT22;11388;54.456;9.752;2023-04-06T00:21:11;4.50;99.90
22442;DHT22;11388;54.456;9.752;2023-04-06T00:23:44;4.50;99.90
22442;DHT22;11388;54.456;9.752;2023-04-06T00:26:10;4.50;99.90
22442;DHT22;11388;54.456;9.752;2023-04-06T00:28:37;4.50;99.90
22442;DHT22;11388;54.456;9.752;2023-04-06T00:31:03;4.40;99.90
22442;DHT22;11388;54.456;9.752;2023-04-06T00:33:29;4.40;99.90
22442;DHT22;11388;54.456;9.752;2023-04-06T00:35:54;4.30;99.90
22442;DHT22;11388;54.456;9.752;2023-04-06T00:38:21;4.20;99.90
22442;DHT22;11388;54.456;9.752;2023-04-06T00:40:47;4.20;99.90
22442;DHT22;11388;54.456;9.752;2023-04-06T00:43:13;4.20;99.90
22442;DHT22;11388;54.456;9.752;2023-04-06T00:45:40;4.20;99.90
22442;DHT22;11388;54.456;9.752;2023-04-06T00:48:06;4.20;99.90
22442;DHT22;11388;54.456;9.752;2023-04-06T00:50:33;4.30;99.90
22442;DHT22;11388;54.456;9.752;2023-04-06T00:52:59;4.20;99.90
22442;DHT22;11388;54.456;9.752;2023-04-06T00:55:26;4.20;99.90
22442;DHT22;11388;54.456;9.752;2023-04-06T00:57:53;4.00;99.90
22442;DHT22;11388;54.456;9.752;2023-04-06T01:00:19;4.00;99.90
22442;DHT22;11388;54.456;9.752;2023-04-06T01:02:52;3.90;99.90
22442;DHT22;11388;54.456;9.752;2023-04-06T01:05:18;3.80;99.90
22442;DHT22;11388;54.456;9.752;2023-04-06T01:07:45;3.80;99.90
22442;DHT22;11388;54.456;9.752;2023-04-06T01:10:11;3.70;99.90
22442;DHT22;11388;54.456;9.752;2023-04-06T01:12:36;3.70;99.90
22442;DHT22;11388;54.456;9.752;2023-04-06T01:15:05;3.60;99.90
22442;DHT22;11388;54.456;9.752;2023-04-06T01:17:32;3.50;99.90
22442;DHT22;11388;54.456;9.752;2023-04-06T01:19:57;3.50;99.90
22442;DHT22;11388;54.456;9.752;2023-04-06T01:25:12;3.40;99.90
22442;DHT22;11388;54.456;9.752;2023-04-06T01:27:38;3.40;99.90
22442;DHT22;11388;54.456;9.752;2023-04-06T01:30:05;3.30;99.90
22442;DHT22;11388;54.456;9.752;2023-04-06T01:32:31;3.30;99.90
22442;DHT22;11388;54.456;9.752;2023-04-06T01:34:57;3.40;99.90
22442;DHT22;11388;54.456;9.752;2023-04-06T01:37:22;3.40;99.90
22442;DHT22;11388;54.456;9.752;2023-04-06T01:39:48;3.40;99.90
22442;DHT22;11388;54.456;9.752;2023-04-06T01:42:14;3.40;99.90
22442;DHT22;11388;54.456;9.752;2023-04-06T01:44:39;3.40;99.90
22442;DHT22;11388;54.456;9.752;2023-04-06T01:47:05;3.30;99.90
22442;DHT22;11388;54.456;9.752;2023-04-06T01:49:31;3.30;99.90
22442;DHT22;11388;54.456;9.752;2023-04-06T01:51:57;3.20;99.90
22442;DHT22;11388;54.456;9.752;2023-04-06T01:54:22;3.20;99.90
22442;DHT22;11388;54.456;9.752;2023-04-06T01:56:48;3.20;99.90
22442;DHT22;11388;54.456;9.752;2023-04-06T01:59:16;3.10;99.90
22442;DHT22;11388;54.456;9.752;2023-04-06T02:01:41;3.00;99.90
22442;DHT22;11388;54.456;9.752;2023-04-06T02:04:07;3.00;99.90
22442;DHT22;11388;54.456;9.752;2023-04-06T02:06:33;3.00;99.90
22442;DHT22;11388;54.456;9.752;2023-04-06T02:08:58;3.10;99.90
22442;DHT22;11388;54.456;9.752;2023-04-06T02:11:24;3.10;99.90
22442;DHT22;11388;54.456;9.752;2023-04-06T02:13:50;3.10;99.90
22442;DHT22;11388;54.456;9.752;2023-04-06T02:16:15;3.00;99.90
22442;DHT22;11388;54.456;9.752;2023-04-06T02:18:41;3.00;99.90
22442;DHT22;11388;54.456;9.752;2023-04-06T02:21:07;3.00;99.90
22442;DHT22;11388;54.456;9.752;2023-04-06T02:23:33;3.00;99.90
22442;DHT22;11388;54.456;9.752;2023-04-06T02:25:58;3.00;99.90
22442;DHT22;11388;54.456;9.752;2023-04-06T02:28:24;2.90;99.90
22442;DHT22;11388;54.456;9.752;2023-04-06T02:30:50;3.00;99.90
22442;DHT22;11388;54.456;9.752;2023-04-06T02:33:16;3.00;99.90
22442;DHT22;11388;54.456;9.752;2023-04-06T02:35:43;3.00;99.90
22442;DHT22;11388;54.456;9.752;2023-04-06T02:38:09;3.00;99.90
22442;DHT22;11388;54.456;9.752;2023-04-06T02:40:35;2.90;99.90
22442;DHT22;11388;54.456;9.752;2023-04-06T02:43:05;2.90;99.90
22442;DHT22;11388;54.456;9.752;2023-04-06T02:45:31;3.00;99.90
22442;DHT22;11388;54.456;9.752;2023-04-06T02:47:56;2.90;99.90
22442;DHT22;11388;54.456;9.752;2023-04-06T02:50:22;2.90;99.90
22442;DHT22;11388;54.456;9.752;2023-04-06T02:52:48;2.90;99.90
22442;DHT22;11388;54.456;9.752;2023-04-06T02:55:13;2.90;99.90
22442;DHT22;11388;54.456;9.752;2023-04-06T02:57:39;2.90;99.90
22442;DHT22;11388;54.456;9.752;2023-04-06T03:00:06;2.80;99.90
22442;DHT22;11388;54.456;9.752;2023-04-06T03:05:26;2.80;99.90
22442;DHT22;11388;54.456;9.752;2023-04-06T03:07:52;2.80;99.90
22442;DHT22;11388;54.456;9.752;2023-04-06T03:10:18;2.70;99.90
22442;DHT22;11388;54.456;9.752;2023-04-06T03:12:43;2.60;99.90
22442;DHT22;11388;54.456;9.752;2023-04-06T03:15:10;2.60;99.90
22442;DHT22;11388;54.456;9.752;2023-04-06T03:17:36;2.50;99.90
22442;DHT22;11388;54.456;9.752;2023-04-06T03:20:03;2.50;99.90
22442;DHT22;11388;54.456;9.752;2023-04-06T03:22:29;2.50;99.90
22442;DHT22;11388;54.456;9.752;2023-04-06T03:24:55;2.50;99.90
22442;DHT22;11388;54.456;9.752;2023-04-06T03:27:20;2.40;99.90
22442;DHT22;11388;54.456;9.752;2023-04-06T03:29:46;2.40;99.90
22442;DHT22;11388;54.456;9.752;2023-04-06T03:32:12;2.40;99.90
22442;DHT22;11388;54.456;9.752;2023-04-06T03:34:38;2.40;99.90
22442;DHT22;11388;54.456;9.752;2023-04-06T03:37:07;2.40;99.90
22442;DHT22;11388;54.456;9.752;2023-04-06T03:39:32;2.30;99.90
22442;DHT22;11388;54.456;9.752;2023-04-06T03:41:58;2.30;99.90
22442;DHT22;11388;54.456;9.752;2023-04-06T03:44:24;2.30;99.90
22442;DHT22;11388;54.456;9.752;2023-04-06T03:46:49;2.20;99.90
22442;DHT22;11388;54.456;9.752;2023-04-06T03:49:15;2.20;99.90
22442;DHT22;11388;54.456;9.752;2023-04-06T03:51:58;2.20;99.90
22442;DHT22;11388;54.456;9.752;2023-04-06T03:54:24;2.20;99.90
22442;DHT22;11388;54.456;9.752;2023-04-06T03:56:50;2.20;99.90
22442;DHT22;11388;54.456;9.752;2023-04-06T03:59:16;2.20;99.90
22442;DHT22;11388;54.456;9.752;2023-04-06T04:01:41;2.20;99.90
22442;DHT22;11388;54.456;9.752;2023-04-06T04:04:07;2.20;99.90
22442;DHT22;11388;54.456;9.752;2023-04-06T04:06:33;2.10;99.90
22442;DHT22;11388;54.456;9.752;2023-04-06T04:08:59;2.10;99.90
22442;DHT22;11388;54.456;9.752;2023-04-06T04:11:24;2.00;99.90
22442;DHT22;11388;54.456;9.752;2023-04-06T04:13:50;2.00;99.90
22442;DHT22;11388;54.456;9.752;2023-04-06T04:16:16;2.00;99.90
22442;DHT22;11388;54.456;9.752;2023-04-06T04:18:41;2.00;99.90
22442;DHT22;11388;54.456;9.752;2023-04-06T04:21:08;1.90;99.90
22442;DHT22;11388;54.456;9.752;2023-04-06T04:23:38;1.90;99.90
22442;DHT22;11388;54.456;9.752;2023-04-06T04:26:04;1.90;99.90
22442;DHT22;11388;54.456;9.752;2023-04-06T04:28:30;1.90;99.90
22442;DHT22;11388;54.456;9.752;2023-04-06T04:30:56;1.90;99.90
22442;DHT22;11388;54.456;9.752;2023-04-06T04:33:21;1.90;99.90
22442;DHT22;11388;54.456;9.752;2023-04-06T04:35:47;1.90;99.90
22442;DHT22;11388;54.456;9.752;2023-04-06T04:38:13;1.80;99.90
22442;DHT22;11388;54.456;9.752;2023-04-06T04:40:38;1.80;99.90
22442;DHT22;11388;54.456;9.752;2023-04-06T04:43:04;1.80;99.90
22442;DHT22;11388;54.456;9.752;2023-04-06T04:45:30;1.80;99.90
22442;DHT22;11388;54.456;9.752;2023-04-06T04:47:56;1.80;99.90
22442;DHT22;11388;54.456;9.752;2023-04-06T04:50:22;1.80;99.90
22442;DHT22;11388;54.456;9.752;2023-04-06T04:52:47;1.70;99.90
22442;DHT22;11388;54.456;9.752;2023-04-06T04:55:14;1.80;99.90
22442;DHT22;11388;54.456;9.752;2023-04-06T04:57:39;1.70;99.90
22442;DHT22;11388;54.456;9.752;2023-04-06T05:00:06;1.70;99.90
22442;DHT22;11388;54.456;9.752;2023-04-06T05:02:31;1.80;99.90
22442;DHT22;11388;54.456;9.752;2023-04-06T05:04:57;1.70;99.90
22442;DHT22;11388;54.456;9.752;2023-04-06T05:07:23;1.70;99.90
22442;DHT22;11388;54.456;9.752;2023-04-06T05:09:49;1.70;99.90
22442;DHT22;11388;54.456;9.752;2023-04-06T05:12:15;1.70;99.90
22442;DHT22;11388;54.456;9.752;2023-04-06T05:14:41;1.70;99.90
22442;DHT22;11388;54.456;9.752;2023-04-06T05:17:07;1.70;99.90
22442;DHT22;11388;54.456;9.752;2023-04-06T05:19:32;1.70;99.90
22442;DHT22;11388;54.456;9.752;2023-04-06T05:21:58;1.70;99.90
22442;DHT22;11388;54.456;9.752;2023-04-06T05:24:24;1.70;99.90
22442;DHT22;11388;54.456;9.752;2023-04-06T05:26:50;1.70;99.90
22442;DHT22;11388;54.456;9.752;2023-04-06T05:29:16;1.70;99.90
22442;DHT22;11388;54.456;9.752;2023-04-06T05:31:42;1.80;99.90
22442;DHT22;11388;54.456;9.752;2023-04-06T05:34:08;1.80;99.90
22442;DHT22;11388;54.456;9.752;2023-04-06T05:36:35;1.80;99.90
22442;DHT22;11388;54.456;9.752;2023-04-06T05:39:00;1.80;99.90
22442;DHT22;11388;54.456;9.752;2023-04-06T05:41:26;1.90;99.90
22442;DHT22;11388;54.456;9.752;2023-04-06T05:43:52;1.90;99.90
22442;DHT22;11388;54.456;9.752;2023-04-06T05:46:18;1.90;99.90
22442;DHT22;11388;54.456;9.752;2023-04-06T05:48:44;1.90;99.90
22442;DHT22;11388;54.456;9.752;2023-04-06T05:51:10;2.00;99.90
22442;DHT22;11388;54.456;9.752;2023-04-06T05:53:36;2.00;99.90
22442;DHT22;11388;54.456;9.752;2023-04-06T05:56:02;2.00;99.90
22442;DHT22;11388;54.456;9.752;2023-04-06T05:58:29;2.00;99.90
22442;DHT22;11388;54.456;9.752;2023-04-06T06:00:58;2.00;99.90
22442;DHT22;11388;54.456;9.752;2023-04-06T06:03:25;2.00;99.90
22442;DHT22;11388;54.456;9.752;2023-04-06T06:05:50;2.10;99.90
22442;DHT22;11388;54.456;9.752;2023-04-06T06:08:16;2.10;99.90
22442;DHT22;11388;54.456;9.752;2023-04-06T06:10:42;2.20;99.90
22442;DHT22;11388;54.456;9.752;2023-04-06T06:13:08;2.20;99.90
22442;DHT22;11388;54.456;9.752;2023-04-06T06:15:34;2.30;99.90
22442;DHT22;11388;54.456;9.752;2023-04-06T06:18:00;2.40;99.90
22442;DHT22;11388;54.456;9.752;2023-04-06T06:20:26;2.40;99.90
22442;DHT22;11388;54.456;9.752;2023-04-06T06:23:04;2.50;99.90
22442;DHT22;11388;54.456;9.752;2023-04-06T06:25:29;2.50;99.90
22442;DHT22;11388;54.456;9.752;2023-04-06T06:27:58;2.60;99.90
22442;DHT22;11388;54.456;9.752;2023-04-06T06:30:25;2.70;99.90
22442;DHT22;11388;54.456;9.752;2023-04-06T06:32:51;2.80;99.90
22442;DHT22;11388;54.456;9.752;2023-04-06T06:35:17;2.90;99.90
22442;DHT22;11388;54.456;9.752;2023-04-06T06:37:43;3.00;99.90
22442;DHT22;11388;54.456;9.752;2023-04-06T06:40:10;3.10;99.90
22442;DHT22;11388;54.456;9.752;2023-04-06T06:42:38;3.20;99.90
22442;DHT22;11388;54.456;9.752;2023-04-06T06:45:05;3.30;99.90
22442;DHT22;11388;54.456;9.752;2023-04-06T06:47:31;3.40;99.90
22442;DHT22;11388;54.456;9.752;2023-04-06T06:49:56;3.50;99.90
22442;DHT22;11388;54.456;9.752;2023-04-06T06:52:22;3.70;99.90
22442;DHT22;11388;54.456;9.752;2023-04-06T06:54:49;3.80;99.90
22442;DHT22;11388;54.456;9.752;2023-04-06T06:57:15;3.90;99.90
22442;DHT22;11388;54.456;9.752;2023-04-06T06:59:41;4.00;99.90
22442;DHT22;11388;54.456;9.752;2023-04-06T07:02:23;4.10;99.90
22442;DHT22;11388;54.456;9.752;2023-04-06T07:04:49;4.20;99.90
22442;DHT22;11388;54.456;9.752;2023-04-06T07:07:15;4.30;99.90
22442;DHT22;11388;54.456;9.752;2023-04-06T07:09:42;4.40;99.90
22442;DHT22;11388;54.456;9.752;2023-04-06T07:12:07;4.50;99.90
22442;DHT22;11388;54.456;9.752;2023-04-06T07:14:33;4.60;99.90
22442;DHT22;11388;54.456;9.752;2023-04-06T07:16:59;4.70;99.90
22442;DHT22;11388;54.456;9.752;2023-04-06T07:19:25;4.70;99.90
22442;DHT22;11388;54.456;9.752;2023-04-06T07:21:50;4.90;99.90
22442;DHT22;11388;54.456;9.752;2023-04-06T07:24:16;5.00;99.90
22442;DHT22;11388;54.456;9.752;2023-04-06T07:26:42;5.20;99.90
22442;DHT22;11388;54.456;9.752;2023-04-06T07:29:08;5.30;99.90
22442;DHT22;11388;54.456;9.752;2023-04-06T07:31:34;5.30;99.90
22442;DHT22;11388;54.456;9.752;2023-04-06T07:34:01;5.40;99.90
22442;DHT22;11388;54.456;9.752;2023-04-06T07:36:27;5.50;99.90
22442;DHT22;11388;54.456;9.752;2023-04-06T07:38:53;5.60;99.90
22442;DHT22;11388;54.456;9.752;2023-04-06T07:41:18;5.70;99.90
22442;DHT22;11388;54.456;9.752;2023-04-06T07:43:44;5.80;99.90
22442;DHT22;11388;54.456;9.752;2023-04-06T07:46:10;6.00;99.90
22442;DHT22;11388;54.456;9.752;2023-04-06T07:48:36;6.00;99.90
22442;DHT22;11388;54.456;9.752;2023-04-06T07:51:03;6.10;99.90
22442;DHT22;11388;54.456;9.752;2023-04-06T07:53:29;6.20;99.90
22442;DHT22;11388;54.456;9.752;2023-04-06T07:55:57;6.30;99.90
22442;DHT22;11388;54.456;9.752;2023-04-06T07:58:23;6.30;99.90
22442;DHT22;11388;54.456;9.752;2023-04-06T08:00:48;6.40;99.90
22442;DHT22;11388;54.456;9.752;2023-04-06T08:03:14;6.50;99.90
22442;DHT22;11388;54.456;9.752;2023-04-06T08:05:42;6.60;99.90
22442;DHT22;11388;54.456;9.752;2023-04-06T08:08:08;6.60;99.90
22442;DHT22;11388;54.456;9.752;2023-04-06T08:10:33;6.70;99.90
22442;DHT22;11388;54.456;9.752;2023-04-06T08:13:00;6.70;99.90
22442;DHT22;11388;54.456;9.752;2023-04-06T08:15:26;6.80;99.90
22442;DHT22;11388;54.456;9.752;2023-04-06T08:17:51;6.90;99.90
22442;DHT22;11388;54.456;9.752;2023-04-06T08:20:17;7.00;99.90
22442;DHT22;11388;54.456;9.752;2023-04-06T08:22:43;7.10;99.90
22442;DHT22;11388;54.456;9.752;2023-04-06T08:25:09;7.20;99.90
22442;DHT22;11388;54.456;9.752;2023-04-06T08:27:35;7.30;99.90
22442;DHT22;11388;54.456;9.752;2023-04-06T08:30:00;7.40;99.90
22442;DHT22;11388;54.456;9.752;2023-04-06T08:32:26;7.50;99.90
22442;DHT22;11388;54.456;9.752;2023-04-06T08:34:55;7.60;99.90
22442;DHT22;11388;54.456;9.752;2023-04-06T08:37:22;7.70;99.90
22442;DHT22;11388;54.456;9.752;2023-04-06T08:39:47;7.80;99.90
22442;DHT22;11388;54.456;9.752;2023-04-06T08:42:20;7.80;99.90
22442;DHT22;11388;54.456;9.752;2023-04-06T08:44:49;7.90;99.90
22442;DHT22;11388;54.456;9.752;2023-04-06T08:47:16;8.10;99.90
22442;DHT22;11388;54.456;9.752;2023-04-06T08:49:43;8.10;99.90
22442;DHT22;11388;54.456;9.752;2023-04-06T08:52:10;8.20;99.90
22442;DHT22;11388;54.456;9.752;2023-04-06T08:54:37;8.30;99.90
22442;DHT22;11388;54.456;9.752;2023-04-06T08:57:03;8.40;99.90
22442;DHT22;11388;54.456;9.752;2023-04-06T08:59:30;8.50;99.90
22442;DHT22;11388;54.456;9.752;2023-04-06T09:01:56;8.60;99.90
22442;DHT22;11388;54.456;9.752;2023-04-06T09:04:23;8.60;99.90
22442;DHT22;11388;54.456;9.752;2023-04-06T09:06:48;8.80;99.90
22442;DHT22;11388;54.456;9.752;2023-04-06T09:09:15;8.80;99.90
22442;DHT22;11388;54.456;9.752;2023-04-06T09:11:45;8.90;99.90
22442;DHT22;11388;54.456;9.752;2023-04-06T09:14:11;9.00;99.90
22442;DHT22;11388;54.456;9.752;2023-04-06T09:16:45;9.00;99.90
22442;DHT22;11388;54.456;9.752;2023-04-06T09:19:12;9.10;99.90
22442;DHT22;11388;54.456;9.752;2023-04-06T09:21:38;9.20;99.90
22442;DHT22;11388;54.456;9.752;2023-04-06T09:24:06;9.20;99.90
22442;DHT22;11388;54.456;9.752;2023-04-06T09:26:32;9.20;99.90
22442;DHT22;11388;54.456;9.752;2023-04-06T09:28:59;9.20;99.90
22442;DHT22;11388;54.456;9.752;2023-04-06T09:31:30;9.20;99.90
22442;DHT22;11388;54.456;9.752;2023-04-06T09:33:58;9.30;99.90
22442;DHT22;11388;54.456;9.752;2023-04-06T09:36:33;9.40;99.90
22442;DHT22;11388;54.456;9.752;2023-04-06T09:39:03;9.40;99.90
22442;DHT22;11388;54.456;9.752;2023-04-06T09:41:31;9.50;99.90
22442;DHT22;11388;54.456;9.752;2023-04-06T09:44:06;9.60;99.90
22442;DHT22;11388;54.456;9.752;2023-04-06T09:46:37;9.70;99.90
22442;DHT22;11388;54.456;9.752;2023-04-06T09:49:05;9.80;99.90
22442;DHT22;11388;54.456;9.752;2023-04-06T09:51:45;9.80;99.90
22442;DHT22;11388;54.456;9.752;2023-04-06T09:54:34;9.80;99.90
22442;DHT22;11388;54.456;9.752;2023-04-06T09:57:27;9.90;99.90
22442;DHT22;11388;54.456;9.752;2023-04-06T10:00:06;10.00;99.90
22442;DHT22;11388;54.456;9.752;2023-04-06T10:05:46;10.10;99.90
22442;DHT22;11388;54.456;9.752;2023-04-06T10:08:15;10.10;99.90
22442;DHT22;11388;54.456;9.752;2023-04-06T10:10:41;10.20;99.90
22442;DHT22;11388;54.456;9.752;2023-04-06T10:13:10;10.20;99.90
22442;DHT22;11388;54.456;9.752;2023-04-06T10:15:38;10.10;99.90
22442;DHT22;11388;54.456;9.752;2023-04-06T10:18:04;10.10;99.90
22442;DHT22;11388;54.456;9.752;2023-04-06T10:26:19;10.40;99.90
22442;DHT22;11388;54.456;9.752;2023-04-06T10:28:47;10.50;99.90
22442;DHT22;11388;54.456;9.752;2023-04-06T10:31:13;10.60;99.90
22442;DHT22;11388;54.456;9.752;2023-04-06T10:33:39;10.60;99.90
22442;DHT22;11388;54.456;9.752;2023-04-06T10:36:23;10.60;99.90
22442;DHT22;11388;54.456;9.752;2023-04-06T10:38:54;10.70;99.90
22442;DHT22;11388;54.456;9.752;2023-04-06T10:41:20;10.80;99.90
22442;DHT22;11388;54.456;9.752;2023-04-06T10:43:55;10.80;99.90
22442;DHT22;11388;54.456;9.752;2023-04-06T10:46:26;10.80;99.90
22442;DHT22;11388;54.456;9.752;2023-04-06T10:48:52;10.80;99.90
22442;DHT22;11388;54.456;9.752;2023-04-06T10:51:19;10.90;99.90
22442;DHT22;11388;54.456;9.752;2023-04-06T10:53:54;10.70;98.70
22442;DHT22;11388;54.456;9.752;2023-04-06T10:56:24;10.80;99.90
22442;DHT22;11388;54.456;9.752;2023-04-06T10:58:53;10.90;99.90
22442;DHT22;11388;54.456;9.752;2023-04-06T11:01:22;10.90;98.90
22442;DHT22;11388;54.456;9.752;2023-04-06T11:07:10;11.10;99.90
22442;DHT22;11388;54.456;9.752;2023-04-06T11:09:36;11.20;99.10
22442;DHT22;11388;54.456;9.752;2023-04-06T11:12:02;11.20;97.40
22442;DHT22;11388;54.456;9.752;2023-04-06T11:14:27;11.20;99.00
22442;DHT22;11388;54.456;9.752;2023-04-06T11:16:53;11.30;98.40
22442;DHT22;11388;54.456;9.752;2023-04-06T11:19:19;11.40;99.50
22442;DHT22;11388;54.456;9.752;2023-04-06T11:21:48;11.60;99.00
22442;DHT22;11388;54.456;9.752;2023-04-06T11:24:24;11.70;98.30
22442;DHT22;11388;54.456;9.752;2023-04-06T11:26:54;11.60;96.90
22442;DHT22;11388;54.456;9.752;2023-04-06T11:29:31;11.40;96.40
22442;DHT22;11388;54.456;9.752;2023-04-06T11:32:04;11.60;97.00
22442;DHT22;11388;54.456;9.752;2023-04-06T11:34:37;11.80;97.90
22442;DHT22;11388;54.456;9.752;2023-04-06T11:37:13;11.90;97.20
22442;DHT22;11388;54.456;9.752;2023-04-06T11:40:00;11.80;96.30
22442;DHT22;11388;54.456;9.752;2023-04-06T11:42:31;11.80;96.20
22442;DHT22;11388;54.456;9.752;2023-04-06T11:45:00;12.00;97.00
22442;DHT22;11388;54.456;9.752;2023-04-06T11:47:30;12.10;96.10
22442;DHT22;11388;54.456;9.752;2023-04-06T11:50:08;12.20;96.20
22442;DHT22;11388;54.456;9.752;2023-04-06T11:52:35;12.10;94.10
22442;DHT22;11388;54.456;9.752;2023-04-06T11:55:18;12.20;96.40
22442;DHT22;11388;54.456;9.752;2023-04-06T11:57:44;12.40;94.90
22442;DHT22;11388;54.456;9.752;2023-04-06T12:00:11;12.60;95.20
22442;DHT22;11388;54.456;9.752;2023-04-06T12:02:38;12.60;92.80
22442;DHT22;11388;54.456;9.752;2023-04-06T12:05:05;12.70;94.10
22442;DHT22;11388;54.456;9.752;2023-04-06T12:07:32;13.00;94.10
22442;DHT22;11388;54.456;9.752;2023-04-06T12:10:00;13.30;93.50
22442;DHT22;11388;54.456;9.752;2023-04-06T12:12:26;13.40;93.60
22442;DHT22;11388;54.456;9.752;2023-04-06T12:14:52;13.60;92.80
22442;DHT22;11388;54.456;9.752;2023-04-06T12:17:19;13.90;91.60
22442;DHT22;11388;54.456;9.752;2023-04-06T12:19:45;15.30;93.10
22442;DHT22;11388;54.456;9.752;2023-04-06T12:22:11;17.30;87.50
22442;DHT22;11388;54.456;9.752;2023-04-06T12:24:37;19.30;82.90
22442;DHT22;11388;54.456;9.752;2023-04-06T12:27:03;20.60;69.00
22442;DHT22;11388;54.456;9.752;2023-04-06T12:29:29;22.30;70.20
22442;DHT22;11388;54.456;9.752;2023-04-06T12:31:54;24.10;65.70
22442;DHT22;11388;54.456;9.752;2023-04-06T12:34:23;25.50;59.00
22442;DHT22;11388;54.456;9.752;2023-04-06T12:36:50;26.90;59.50
22442;DHT22;11388;54.456;9.752;2023-04-06T12:39:16;27.60;50.30
22442;DHT22;11388;54.456;9.752;2023-04-06T12:41:43;28.50;48.40
22442;DHT22;11388;54.456;9.752;2023-04-06T12:44:08;28.10;44.70
22442;DHT22;11388;54.456;9.752;2023-04-06T12:46:34;28.90;43.10
22442;DHT22;11388;54.456;9.752;2023-04-06T12:49:03;28.80;40.30
22442;DHT22;11388;54.456;9.752;2023-04-06T12:51:29;28.20;39.10
22442;DHT22;11388;54.456;9.752;2023-04-06T12:53:56;28.40;37.20
22442;DHT22;11388;54.456;9.752;2023-04-06T12:56:23;29.10;39.60
22442;DHT22;11388;54.456;9.752;2023-04-06T12:58:54;29.20;41.00
22442;DHT22;11388;54.456;9.752;2023-04-06T13:01:20;30.50;38.40
22442;DHT22;11388;54.456;9.752;2023-04-06T13:03:49;31.50;40.40
22442;DHT22;11388;54.456;9.752;2023-04-06T13:06:15;31.60;35.40
22442;DHT22;11388;54.456;9.752;2023-04-06T13:08:41;30.90;34.10
22442;DHT22;11388;54.456;9.752;2023-04-06T13:11:07;31.00;34.70
22442;DHT22;11388;54.456;9.752;2023-04-06T13:13:36;30.30;34.20
22442;DHT22;11388;54.456;9.752;2023-04-06T13:16:04;30.90;33.60
22442;DHT22;11388;54.456;9.752;2023-04-06T13:18:31;31.20;33.20
22442;DHT22;11388;54.456;9.752;2023-04-06T13:20:58;30.10;30.40
22442;DHT22;11388;54.456;9.752;2023-04-06T13:23:25;27.50;31.80
22442;DHT22;11388;54.456;9.752;2023-04-06T13:26:04;27.80;33.40
22442;DHT22;11388;54.456;9.752;2023-04-06T13:28:30;28.90;36.40
22442;DHT22;11388;54.456;9.752;2023-04-06T13:30:58;29.10;34.40
22442;DHT22;11388;54.456;9.752;2023-04-06T13:33:27;28.40;35.00
22442;DHT22;11388;54.456;9.752;2023-04-06T13:35:53;28.40;34.00
22442;DHT22;11388;54.456;9.752;2023-04-06T13:38:19;28.00;34.70
22442;DHT22;11388;54.456;9.752;2023-04-06T13:40:45;28.20;35.50
22442;DHT22;11388;54.456;9.752;2023-04-06T13:43:11;28.50;35.20
22442;DHT22;11388;54.456;9.752;2023-04-06T13:45:37;29.10;34.60
22442;DHT22;11388;54.456;9.752;2023-04-06T13:48:03;27.90;33.20
22442;DHT22;11388;54.456;9.752;2023-04-06T13:50:29;27.20;33.20
22442;DHT22;11388;54.456;9.752;2023-04-06T13:53:17;26.10;33.40
22442;DHT22;11388;54.456;9.752;2023-04-06T13:55:43;24.70;36.80
22442;DHT22;11388;54.456;9.752;2023-04-06T13:58:08;23.90;38.20
22442;DHT22;11388;54.456;9.752;2023-04-06T14:00:35;23.50;39.30
22442;DHT22;11388;54.456;9.752;2023-04-06T14:03:01;22.20;38.80
22442;DHT22;11388;54.456;9.752;2023-04-06T14:05:30;21.40;40.80
22442;DHT22;11388;54.456;9.752;2023-04-06T14:07:55;21.40;41.60
22442;DHT22;11388;54.456;9.752;2023-04-06T14:10:21;21.10;40.70
22442;DHT22;11388;54.456;9.752;2023-04-06T14:12:49;20.50;41.50
22442;DHT22;11388;54.456;9.752;2023-04-06T14:15:15;20.50;42.20
22442;DHT22;11388;54.456;9.752;2023-04-06T14:17:41;20.60;43.40
22442;DHT22;11388;54.456;9.752;2023-04-06T14:20:10;20.60;41.90
22442;DHT22;11388;54.456;9.752;2023-04-06T14:22:42;20.40;42.00
22442;DHT22;11388;54.456;9.752;2023-04-06T14:25:08;20.10;43.90
22442;DHT22;11388;54.456;9.752;2023-04-06T14:27:35;20.20;44.00
22442;DHT22;11388;54.456;9.752;2023-04-06T14:30:00;20.30;43.80
22442;DHT22;11388;54.456;9.752;2023-04-06T14:32:26;20.20;44.30
22442;DHT22;11388;54.456;9.752;2023-04-06T14:34:52;19.70;44.80
22442;DHT22;11388;54.456;9.752;2023-04-06T14:37:21;19.10;44.80
22442;DHT22;11388;54.456;9.752;2023-04-06T14:39:47;19.20;45.60
22442;DHT22;11388;54.456;9.752;2023-04-06T14:42:13;19.10;45.90
22442;DHT22;11388;54.456;9.752;2023-04-06T14:44:38;19.00;45.80
22442;DHT22;11388;54.456;9.752;2023-04-06T14:47:10;19.20;45.90
22442;DHT22;11388;54.456;9.752;2023-04-06T14:49:36;19.10;46.40
22442;DHT22;11388;54.456;9.752;2023-04-06T14:52:02;19.60;45.70
22442;DHT22;11388;54.456;9.752;2023-04-06T14:54:28;20.20;44.50
22442;DHT22;11388;54.456;9.752;2023-04-06T14:56:54;20.00;44.70
22442;DHT22;11388;54.456;9.752;2023-04-06T14:59:23;19.70;46.60
22442;DHT22;11388;54.456;9.752;2023-04-06T15:01:50;19.30;45.60
22442;DHT22;11388;54.456;9.752;2023-04-06T15:04:16;18.70;44.70
22442;DHT22;11388;54.456;9.752;2023-04-06T15:06:42;18.90;47.00
22442;DHT22;11388;54.456;9.752;2023-04-06T15:09:07;19.10;48.10
22442;DHT22;11388;54.456;9.752;2023-04-06T15:11:33;19.10;47.70
22442;DHT22;11388;54.456;9.752;2023-04-06T15:14:00;19.40;47.70
22442;DHT22;11388;54.456;9.752;2023-04-06T15:16:26;20.00;47.30
22442;DHT22;11388;54.456;9.752;2023-04-06T15:18:52;20.10;45.90
22442;DHT22;11388;54.456;9.752;2023-04-06T15:21:17;20.10;45.30
22442;DHT22;11388;54.456;9.752;2023-04-06T15:23:55;19.80;46.50
22442;DHT22;11388;54.456;9.752;2023-04-06T15:26:21;19.70;47.40
22442;DHT22;11388;54.456;9.752;2023-04-06T15:28:47;19.50;46.80
22442;DHT22;11388;54.456;9.752;2023-04-06T15:31:14;19.20;48.00
22442;DHT22;11388;54.456;9.752;2023-04-06T15:33:40;18.90;48.20
22442;DHT22;11388;54.456;9.752;2023-04-06T15:36:16;18.60;48.00
22442;DHT22;11388;54.456;9.752;2023-04-06T15:38:47;18.20;48.40
22442;DHT22;11388;54.456;9.752;2023-04-06T15:41:13;18.40;48.70
22442;DHT22;11388;54.456;9.752;2023-04-06T15:46:56;18.60;49.30
22442;DHT22;11388;54.456;9.752;2023-04-06T15:49:22;18.50;48.70
22442;DHT22;11388;54.456;9.752;2023-04-06T15:51:48;18.50;48.90
22442;DHT22;11388;54.456;9.752;2023-04-06T15:54:14;18.40;49.10
22442;DHT22;11388;54.456;9.752;2023-04-06T15:56:41;18.20;48.50
22442;DHT22;11388;54.456;9.752;2023-04-06T15:59:07;18.20;48.50
22442;DHT22;11388;54.456;9.752;2023-04-06T16:01:33;17.90;48.90